createdAt,value
2022-12-20T00:01:22.911Z,4.43
2022-12-20T00:03:53.796Z,4.49
2022-12-20T00:06:21.529Z,4.49
2022-12-20T00:08:54.712Z,4.48
2022-12-20T00:11:21.718Z,4.49
2022-12-20T00:13:48.428Z,4.48
2022-12-20T00:16:18.137Z,4.52
2022-12-20T00:18:45.256Z,4.55
2022-12-20T00:21:14.212Z,4.55
2022-12-20T00:23:41.633Z,4.58
2022-12-20T00:26:11.378Z,4.55
2022-12-20T00:28:39.849Z,4.59
2022-12-20T00:31:07.795Z,4.57
2022-12-20T00:33:36.522Z,4.53
2022-12-20T00:36:05.910Z,4.47
2022-12-20T00:38:33.540Z,4.49
2022-12-20T00:41:05.648Z,4.47
2022-12-20T00:43:33.736Z,4.49
2022-12-20T00:46:01.616Z,4.41
2022-12-20T00:48:29.946Z,4.41
2022-12-20T00:51:01.722Z,4.36
2022-12-20T00:53:28.985Z,4.34
2022-12-20T00:55:55.914Z,4.28
2022-12-20T00:58:22.758Z,4.24
2022-12-20T01:00:55.916Z,4.23
2022-12-20T01:03:24.128Z,4.30
2022-12-20T01:05:55.642Z,4.25
2022-12-20T01:08:24.447Z,4.18
2022-12-20T01:11:06.499Z,4.17
2022-12-20T01:13:36.470Z,4.16
2022-12-20T01:16:16.155Z,4.18
2022-12-20T01:18:43.579Z,4.18
2022-12-20T01:21:13.880Z,4.25
2022-12-20T01:23:40.996Z,4.29
2022-12-20T01:26:12.394Z,4.29
2022-12-20T01:28:40.179Z,4.27
2022-12-20T01:31:08.808Z,4.27
2022-12-20T01:33:36.171Z,4.22
2022-12-20T01:36:06.152Z,4.21
2022-12-20T01:38:33.694Z,4.15
2022-12-20T01:41:00.385Z,4.19
2022-12-20T01:43:50.401Z,4.16
2022-12-20T01:46:17.936Z,4.16
2022-12-20T01:48:58.976Z,4.19
2022-12-20T01:51:28.423Z,4.21
2022-12-20T01:54:04.743Z,4.25
2022-12-20T01:56:31.954Z,4.27
2022-12-20T01:58:59.097Z,4.25
2022-12-20T02:01:26.312Z,4.24
2022-12-20T02:03:55.547Z,4.22
2022-12-20T02:06:26.013Z,4.24
2022-12-20T02:08:56.669Z,4.24
2022-12-20T02:11:37.442Z,4.21
2022-12-20T02:14:24.087Z,4.11
2022-12-20T02:16:57.796Z,4.07
2022-12-20T02:19:30.531Z,4.03
2022-12-20T02:22:34.791Z,4.07
2022-12-20T02:25:20.473Z,4.06
2022-12-20T02:28:08.828Z,4.12
2022-12-20T02:30:41.844Z,4.25
2022-12-20T02:33:12.364Z,4.29
2022-12-20T02:35:41.808Z,4.33
2022-12-20T02:38:35.275Z,4.38
2022-12-20T02:41:12.314Z,4.54
2022-12-20T02:44:02.727Z,4.57
2022-12-20T02:46:31.658Z,4.72
2022-12-20T02:49:03.458Z,4.76
2022-12-20T02:51:32.309Z,4.76
2022-12-20T02:54:00.408Z,4.78
2022-12-20T02:56:39.168Z,4.81
2022-12-20T02:59:18.418Z,4.83
2022-12-20T03:01:49.859Z,4.85
2022-12-20T03:04:18.514Z,4.87
2022-12-20T03:06:57.431Z,4.85
2022-12-20T03:09:24.258Z,4.77
2022-12-20T03:11:51.668Z,4.73
2022-12-20T03:14:19.073Z,4.72
2022-12-20T03:16:48.357Z,4.68
2022-12-20T03:19:15.226Z,4.62
2022-12-20T03:21:42.296Z,4.63
2022-12-20T03:24:11.165Z,4.56
2022-12-20T03:26:38.011Z,4.45
2022-12-20T03:29:05.285Z,4.44
2022-12-20T03:31:32.116Z,4.43
2022-12-20T03:33:58.977Z,4.39
2022-12-20T03:36:26.546Z,4.31
2022-12-20T03:38:59.789Z,4.32
2022-12-20T03:41:30.429Z,4.30
2022-12-20T03:43:57.344Z,4.44
2022-12-20T03:46:25.889Z,4.47
2022-12-20T03:48:53.285Z,4.49
2022-12-20T03:51:20.158Z,4.55
2022-12-20T03:53:46.987Z,4.65
2022-12-20T03:56:14.624Z,4.77
2022-12-20T03:58:43.035Z,4.84
2022-12-20T04:01:25.254Z,4.91
2022-12-20T04:03:53.124Z,4.91
2022-12-20T04:06:21.134Z,5.02
2022-12-20T04:08:47.961Z,4.97
2022-12-20T04:11:21.861Z,4.96
2022-12-20T04:14:10.848Z,5.00
2022-12-20T04:16:38.157Z,5.02
2022-12-20T04:19:06.049Z,4.96
2022-12-20T04:21:40.747Z,5.02
2022-12-20T04:24:07.898Z,4.99
2022-12-20T04:26:49.399Z,4.97
2022-12-20T04:29:17.063Z,4.95
2022-12-20T04:31:44.564Z,4.97
2022-12-20T04:34:11.466Z,4.89
2022-12-20T04:36:38.860Z,4.83
2022-12-20T04:39:10.727Z,4.75
2022-12-20T04:44:40.715Z,4.87
2022-12-20T04:47:10.481Z,4.89
2022-12-20T04:49:37.505Z,4.96
2022-12-20T04:52:23.740Z,4.91
2022-12-20T04:54:50.543Z,4.94
2022-12-20T04:57:23.308Z,4.99
2022-12-20T04:59:50.403Z,5.17
2022-12-20T05:02:17.199Z,5.20
2022-12-20T05:05:04.699Z,5.26
2022-12-20T05:07:37.364Z,5.29
2022-12-20T05:10:04.760Z,5.24
2022-12-20T05:12:31.578Z,5.28
2022-12-20T05:15:00.663Z,5.29
2022-12-20T05:17:27.396Z,5.19
2022-12-20T05:19:54.129Z,5.11
2022-12-20T05:22:40.020Z,5.05
2022-12-20T05:25:30.409Z,5.07
2022-12-20T05:28:00.787Z,5.07
2022-12-20T05:30:32.225Z,5.05
2022-12-20T05:32:59.312Z,5.03
2022-12-20T05:35:27.230Z,5.04
2022-12-20T05:38:01.264Z,4.98
2022-12-20T05:40:28.143Z,5.00
2022-12-20T05:42:55.514Z,5.05
2022-12-20T05:45:29.890Z,5.11
2022-12-20T05:48:02.588Z,5.11
2022-12-20T05:50:32.194Z,5.06
2022-12-20T05:53:22.143Z,5.03
2022-12-20T05:55:54.393Z,5.00
2022-12-20T05:58:26.001Z,5.06
2022-12-20T06:00:59.881Z,5.07
2022-12-20T06:03:26.894Z,5.09
2022-12-20T06:05:54.606Z,5.06
2022-12-20T06:08:27.303Z,5.09
2022-12-20T06:10:56.109Z,5.09
2022-12-20T06:13:23.813Z,5.10
2022-12-20T06:15:53.819Z,5.04
2022-12-20T06:18:21.697Z,5.09
2022-12-20T06:20:52.519Z,5.14
2022-12-20T06:23:22.364Z,5.06
2022-12-20T06:26:13.713Z,5.09
2022-12-20T06:28:52.322Z,5.07
2022-12-20T06:31:24.577Z,5.15
2022-12-20T06:33:53.841Z,5.16
2022-12-20T06:36:24.490Z,5.12
2022-12-20T06:38:52.187Z,5.07
2022-12-20T06:41:19.228Z,5.08
2022-12-20T06:43:46.370Z,5.16
2022-12-20T06:46:13.529Z,5.12
2022-12-20T06:48:40.520Z,5.14
2022-12-20T06:51:09.405Z,5.11
2022-12-20T06:53:36.186Z,5.02
2022-12-20T06:56:03.533Z,4.99
2022-12-20T06:58:32.029Z,5.01
2022-12-20T07:00:58.730Z,5.02
2022-12-20T07:03:25.567Z,4.98
2022-12-20T07:05:55.748Z,5.06
2022-12-20T07:08:23.228Z,4.96
2022-12-20T07:10:49.957Z,4.95
2022-12-20T07:13:16.709Z,4.95
2022-12-20T07:15:43.381Z,4.89
2022-12-20T07:18:10.884Z,4.88
2022-12-20T07:20:37.966Z,4.86
2022-12-20T07:23:04.665Z,4.88
2022-12-20T07:25:31.392Z,4.90
2022-12-20T07:27:58.500Z,4.93
2022-12-20T07:30:25.197Z,4.94
2022-12-20T07:32:52.933Z,4.87
2022-12-20T07:35:19.574Z,4.87
2022-12-20T07:37:46.329Z,4.82
2022-12-20T07:40:14.793Z,4.74
2022-12-20T07:42:48.208Z,4.70
2022-12-20T07:45:15.975Z,4.62
2022-12-20T07:47:43.885Z,4.64
2022-12-20T07:50:11.814Z,4.57
2022-12-20T07:52:41.636Z,4.48
2022-12-20T07:55:10.395Z,4.47
2022-12-20T07:57:51.510Z,4.46
2022-12-20T08:00:21.107Z,4.46
2022-12-20T08:03:02.190Z,4.45
2022-12-20T08:05:29.462Z,4.40
2022-12-20T08:07:59.889Z,4.38
2022-12-20T08:10:28.619Z,4.41
2022-12-20T08:12:55.996Z,4.41
2022-12-20T08:15:23.723Z,4.39
2022-12-20T08:17:50.717Z,4.37
2022-12-20T08:20:18.231Z,4.32
2022-12-20T08:22:45.279Z,4.29
2022-12-20T08:25:12.070Z,4.36
2022-12-20T08:27:38.820Z,4.53
2022-12-20T08:30:07.560Z,4.54
2022-12-20T08:32:34.401Z,4.45
2022-12-20T08:35:01.316Z,4.39
2022-12-20T08:37:28.198Z,4.36
2022-12-20T08:39:54.922Z,4.26
2022-12-20T08:42:21.807Z,4.26
2022-12-20T08:44:48.582Z,4.21
2022-12-20T08:47:15.542Z,4.13
2022-12-20T08:49:47.340Z,4.05
2022-12-20T08:52:14.710Z,4.02
2022-12-20T08:54:41.547Z,4.14
2022-12-20T08:57:08.643Z,4.42
2022-12-20T08:59:35.349Z,4.34
2022-12-20T09:02:02.100Z,4.39
2022-12-20T09:04:29.007Z,4.38
2022-12-20T09:06:55.798Z,4.35
2022-12-20T09:09:22.535Z,4.32
2022-12-20T09:11:49.248Z,4.37
2022-12-20T09:14:16.009Z,4.36
2022-12-20T09:16:42.671Z,4.33
2022-12-20T09:19:12.858Z,4.41
2022-12-20T09:21:39.956Z,4.49
2022-12-20T09:24:07.011Z,4.65
2022-12-20T09:26:35.286Z,4.76
2022-12-20T09:29:02.293Z,4.97
2022-12-20T09:31:29.237Z,5.09
2022-12-20T09:33:58.195Z,5.27
2022-12-20T09:36:27.121Z,5.28
2022-12-20T09:38:55.229Z,5.52
2022-12-20T09:41:34.406Z,5.89
2022-12-20T09:44:07.656Z,6.20
2022-12-20T09:46:35.085Z,6.18
2022-12-20T09:49:02.821Z,6.16
2022-12-20T09:51:35.264Z,6.33
2022-12-20T09:54:20.041Z,6.57
2022-12-20T09:57:06.078Z,6.80
2022-12-20T09:59:40.423Z,6.85
2022-12-20T10:02:53.117Z,6.93
2022-12-20T10:05:01.545Z,7.15
2022-12-20T10:07:37.473Z,7.15
2022-12-20T10:10:25.704Z,7.42
2022-12-20T10:13:23.746Z,7.80
2022-12-20T10:16:05.105Z,7.83
2022-12-20T10:18:31.760Z,7.90
2022-12-20T10:21:04.606Z,7.74
2022-12-20T10:23:42.850Z,7.64
2022-12-20T10:26:12.010Z,7.39
2022-12-20T10:28:41.056Z,7.30
2022-12-20T10:31:14.078Z,7.75
2022-12-20T10:33:41.409Z,7.37
2022-12-20T10:36:37.998Z,7.51
2022-12-20T10:39:07.890Z,7.10
2022-12-20T10:41:54.877Z,7.24
2022-12-20T10:44:29.958Z,6.98
2022-12-20T10:46:59.019Z,6.56
2022-12-20T10:49:33.500Z,6.56
2022-12-20T10:52:12.222Z,6.56
2022-12-20T10:54:41.321Z,6.51
2022-12-20T10:57:29.427Z,6.46
2022-12-20T11:00:02.206Z,6.52
2022-12-20T11:02:39.562Z,6.49
2022-12-20T11:05:10.960Z,6.41
2022-12-20T11:10:44.636Z,6.38
2022-12-20T11:13:25.837Z,6.34
2022-12-20T11:15:57.075Z,6.46
2022-12-20T11:18:51.067Z,6.53
2022-12-20T11:21:32.810Z,6.52
2022-12-20T11:24:25.920Z,6.43
2022-12-20T11:27:22.684Z,6.40
2022-12-20T11:30:08.175Z,6.31
2022-12-20T11:32:48.335Z,6.21
2022-12-20T11:35:23.128Z,6.20
2022-12-20T11:38:09.181Z,6.24
2022-12-20T11:41:05.695Z,6.25
2022-12-20T11:44:23.918Z,6.19
2022-12-20T11:47:02.337Z,6.17
2022-12-20T11:49:42.035Z,6.16
2022-12-20T11:52:47.740Z,6.15
2022-12-20T11:55:25.195Z,6.03
2022-12-20T11:58:18.184Z,5.98
2022-12-20T12:00:53.158Z,5.97
2022-12-20T12:03:32.913Z,5.99
2022-12-20T12:06:12.015Z,5.97
2022-12-20T12:08:45.401Z,5.98
2022-12-20T12:15:03.386Z,6.01
2022-12-20T12:18:00.940Z,6.15
2022-12-20T12:20:45.355Z,6.21
2022-12-20T12:23:37.090Z,6.24
2022-12-20T12:26:34.881Z,6.26
2022-12-20T12:29:06.963Z,6.27
2022-12-20T12:31:39.961Z,6.26
2022-12-20T12:34:25.495Z,6.30
2022-12-20T12:37:09.223Z,6.39
2022-12-20T12:40:13.970Z,6.40
2022-12-20T12:42:58.701Z,6.41
2022-12-20T12:45:29.321Z,6.38
2022-12-20T12:48:03.019Z,6.39
2022-12-20T12:50:35.114Z,6.39
2022-12-20T12:53:08.856Z,6.36
2022-12-20T12:55:41.487Z,6.41
2022-12-20T12:58:23.221Z,6.38
2022-12-20T13:00:56.072Z,6.39
2022-12-20T13:03:42.849Z,6.39
2022-12-20T13:06:31.019Z,6.42
2022-12-20T13:09:00.457Z,6.37
2022-12-20T13:11:42.888Z,6.35
2022-12-20T13:14:25.515Z,6.38
2022-12-20T13:17:16.245Z,6.43
2022-12-20T13:19:52.345Z,6.37
2022-12-20T13:22:18.986Z,6.38
2022-12-20T13:25:04.105Z,6.38
2022-12-20T13:27:39.389Z,6.32
2022-12-20T13:30:12.305Z,6.25
2022-12-20T13:32:48.344Z,6.20
2022-12-20T13:35:24.330Z,6.11
2022-12-20T13:38:06.873Z,6.09
2022-12-20T13:40:43.724Z,6.05
2022-12-20T13:43:42.162Z,6.04
2022-12-20T13:46:08.889Z,6.01
2022-12-20T13:48:52.243Z,6.01
2022-12-20T13:51:25.116Z,5.98
2022-12-20T13:53:56.211Z,5.99
2022-12-20T13:56:29.173Z,5.97
2022-12-20T13:58:58.467Z,5.99
2022-12-20T14:01:26.757Z,5.97
2022-12-20T14:03:54.436Z,5.96
2022-12-20T14:06:26.812Z,5.99
2022-12-20T14:08:54.508Z,5.93
2022-12-20T14:11:24.137Z,5.96
2022-12-20T14:14:04.713Z,5.92
2022-12-20T14:16:33.083Z,5.85
2022-12-20T14:19:13.017Z,5.82
2022-12-20T14:21:43.969Z,5.73
2022-12-20T14:24:18.734Z,5.65
2022-12-20T14:26:52.755Z,5.64
2022-12-20T14:29:23.126Z,5.62
2022-12-20T14:31:50.465Z,5.58
2022-12-20T14:34:41.374Z,5.52
2022-12-20T14:37:36.406Z,5.47
2022-12-20T14:40:17.930Z,5.45
2022-12-20T14:42:45.736Z,5.43
2022-12-20T14:45:12.404Z,5.40
2022-12-20T14:47:49.460Z,5.36
2022-12-20T14:50:24.499Z,5.30
2022-12-20T14:52:51.469Z,5.27
2022-12-20T14:55:22.533Z,5.25
2022-12-20T14:57:51.831Z,5.18
2022-12-20T15:00:18.597Z,5.13
2022-12-20T15:03:00.771Z,5.09
2022-12-20T15:05:34.146Z,5.07
2022-12-20T15:08:14.241Z,5.05
2022-12-20T15:10:43.331Z,4.95
2022-12-20T15:13:15.242Z,4.89
2022-12-20T15:15:42.686Z,4.90
2022-12-20T15:18:18.074Z,4.90
2022-12-20T15:20:48.189Z,4.70
2022-12-20T15:23:23.787Z,4.61
2022-12-20T15:25:50.563Z,4.64
2022-12-20T15:28:20.731Z,4.64
2022-12-20T15:30:49.116Z,4.60
2022-12-20T15:33:27.409Z,4.61
2022-12-20T15:35:54.358Z,4.46
2022-12-20T15:38:40.855Z,4.37
2022-12-20T15:41:19.897Z,4.35
2022-12-20T15:43:47.385Z,4.24
2022-12-20T15:46:14.381Z,4.21
2022-12-20T15:48:41.191Z,4.24
2022-12-20T15:51:21.406Z,4.24
2022-12-20T15:53:48.183Z,4.27
2022-12-20T15:56:21.813Z,4.24
2022-12-20T15:58:49.780Z,4.15
2022-12-20T16:01:21.584Z,4.16
2022-12-20T16:03:48.536Z,4.18
2022-12-20T16:06:17.247Z,4.19
2022-12-20T16:08:44.280Z,4.11
2022-12-20T16:11:22.924Z,4.09
2022-12-20T16:13:50.680Z,4.11
2022-12-20T16:16:19.466Z,4.10
2022-12-20T16:18:46.345Z,4.03
2022-12-20T16:21:18.781Z,4.01
2022-12-20T16:23:46.637Z,3.97
2022-12-20T16:26:22.128Z,3.93
2022-12-20T16:28:50.429Z,3.97
2022-12-20T16:31:24.502Z,3.98
2022-12-20T16:33:52.425Z,3.94
2022-12-20T16:36:19.160Z,3.89
2022-12-20T16:38:46.009Z,3.89
2022-12-20T16:41:19.157Z,3.98
2022-12-20T16:43:47.320Z,3.96
2022-12-20T16:46:19.710Z,3.93
2022-12-20T16:48:49.170Z,3.82
2022-12-20T16:51:28.886Z,3.68
2022-12-20T16:56:44.541Z,3.71
2022-12-20T16:59:21.617Z,3.71
2022-12-20T17:01:55.303Z,3.67
2022-12-20T17:04:23.161Z,3.75
2022-12-20T17:06:50.376Z,3.84
2022-12-20T17:12:04.347Z,3.80
2022-12-20T17:14:31.237Z,3.76
2022-12-20T17:16:58.064Z,3.71
2022-12-20T17:19:24.792Z,3.73
2022-12-20T17:24:44.563Z,3.81
2022-12-20T17:27:11.235Z,3.79
2022-12-20T17:29:37.915Z,3.78
2022-12-20T17:32:19.979Z,3.78
2022-12-20T17:34:47.352Z,3.78
2022-12-20T17:37:14.162Z,3.84
2022-12-20T17:39:41.433Z,3.71
2022-12-20T17:42:13.031Z,3.67
2022-12-20T17:44:39.716Z,3.76
2022-12-20T17:47:06.729Z,3.64
2022-12-20T17:49:38.869Z,3.71
2022-12-20T17:52:05.784Z,3.75
2022-12-20T17:54:40.219Z,3.79
2022-12-20T17:57:13.604Z,3.86
2022-12-20T17:59:40.371Z,3.95
2022-12-20T18:02:33.583Z,4.01
2022-12-20T18:05:00.625Z,4.11
2022-12-20T18:07:27.365Z,4.09
2022-12-20T18:09:54.053Z,4.09
2022-12-20T18:12:20.823Z,4.18
2022-12-20T18:14:50.778Z,4.06
2022-12-20T18:17:17.583Z,3.98
2022-12-20T18:19:45.642Z,3.96
2022-12-20T18:22:13.711Z,3.91
2022-12-20T18:24:40.495Z,3.88
2022-12-20T18:27:07.469Z,4.00
2022-12-20T18:29:34.098Z,3.97
2022-12-20T18:32:00.990Z,4.02
2022-12-20T18:34:27.811Z,4.01
2022-12-20T18:36:55.201Z,3.99
2022-12-20T18:39:21.888Z,3.91
2022-12-20T18:41:48.670Z,3.92
2022-12-20T18:44:15.686Z,3.88
2022-12-20T18:46:42.480Z,3.87
2022-12-20T18:49:09.302Z,3.89
2022-12-20T18:51:36.917Z,3.88
2022-12-20T18:54:05.952Z,3.95
2022-12-20T18:56:34.953Z,4.00
2022-12-20T18:59:10.318Z,4.01
2022-12-20T19:01:38.955Z,4.01
2022-12-20T19:04:07.488Z,3.91
2022-12-20T19:06:35.769Z,3.84
2022-12-20T19:09:05.545Z,3.86
2022-12-20T19:11:32.621Z,3.85
2022-12-20T19:13:59.831Z,3.80
2022-12-20T19:16:29.439Z,3.75
2022-12-20T19:18:56.662Z,3.71
2022-12-20T19:21:29.104Z,3.63
2022-12-20T19:23:58.331Z,3.59
2022-12-20T19:26:29.930Z,3.58
2022-12-20T19:28:57.330Z,3.54
2022-12-20T19:31:28.487Z,3.51
2022-12-20T19:34:02.882Z,3.59
2022-12-20T19:36:39.245Z,3.66
2022-12-20T19:39:11.952Z,3.67
2022-12-20T19:41:38.625Z,3.66
2022-12-20T19:44:06.216Z,3.70
2022-12-20T19:46:33.744Z,3.68
2022-12-20T19:49:00.591Z,3.65
2022-12-20T19:51:28.483Z,3.65
2022-12-20T19:53:57.008Z,3.67
2022-12-20T19:56:34.623Z,3.65
2022-12-20T19:59:02.401Z,3.65
2022-12-20T20:01:29.363Z,3.63
2022-12-20T20:03:59.229Z,3.70
2022-12-20T20:06:28.253Z,3.62
2022-12-20T20:08:59.808Z,3.55
2022-12-20T20:11:27.702Z,3.59
2022-12-20T20:13:54.741Z,3.54
2022-12-20T20:16:22.802Z,3.48
2022-12-20T20:18:50.208Z,3.47
2022-12-20T20:21:21.205Z,3.43
2022-12-20T20:23:48.938Z,3.41
2022-12-20T20:26:19.986Z,3.41
2022-12-20T20:28:46.807Z,3.40
2022-12-20T20:31:15.655Z,3.37
2022-12-20T20:33:43.704Z,3.34
2022-12-20T20:36:13.617Z,3.32
2022-12-20T20:38:40.527Z,3.27
2022-12-20T20:41:07.320Z,3.27
2022-12-20T20:43:37.976Z,3.24
2022-12-20T20:46:07.662Z,3.28
2022-12-20T20:48:34.894Z,3.30
2022-12-20T20:51:01.804Z,3.32
2022-12-20T20:53:33.878Z,3.34
2022-12-20T20:56:03.113Z,3.29
2022-12-20T20:58:30.793Z,3.39
2022-12-20T21:00:59.464Z,3.42
2022-12-20T21:03:28.764Z,3.36
2022-12-20T21:08:43.722Z,3.31
2022-12-20T21:11:10.624Z,3.33
2022-12-20T21:13:40.510Z,3.48
2022-12-20T21:16:13.991Z,3.59
2022-12-20T21:18:40.890Z,3.55
2022-12-20T21:21:10.787Z,3.42
2022-12-20T21:23:38.854Z,3.44
2022-12-20T21:26:05.883Z,3.40
2022-12-20T21:28:32.706Z,3.38
2022-12-20T21:31:04.543Z,3.37
2022-12-20T21:33:32.218Z,3.39
2022-12-20T21:36:03.454Z,3.35
2022-12-20T21:38:30.282Z,3.34
2022-12-20T21:41:07.961Z,3.33
2022-12-20T21:43:34.803Z,3.32
2022-12-20T21:46:01.685Z,3.28
2022-12-20T21:48:29.764Z,3.39
2022-12-20T21:51:11.680Z,3.34
2022-12-20T21:53:55.867Z,3.37
2022-12-20T21:56:23.717Z,3.28
2022-12-20T21:58:51.206Z,3.23
2022-12-20T22:01:23.561Z,3.19
2022-12-20T22:03:51.958Z,3.24
2022-12-20T22:06:19.419Z,3.40
2022-12-20T22:08:46.223Z,3.41
2022-12-20T22:11:15.475Z,3.35
2022-12-20T22:13:42.584Z,3.33
2022-12-20T22:16:10.892Z,3.44
2022-12-20T22:18:37.906Z,3.37
2022-12-20T22:21:06.383Z,3.30
2022-12-20T22:23:33.680Z,3.34
2022-12-20T22:26:09.736Z,3.35
2022-12-20T22:28:37.697Z,3.37
2022-12-20T22:31:08.896Z,3.37
2022-12-20T22:33:36.328Z,3.33
2022-12-20T22:36:03.412Z,3.30
2022-12-20T22:38:30.422Z,3.26
2022-12-20T22:41:19.752Z,3.27
2022-12-20T22:43:47.357Z,3.26
2022-12-20T22:46:16.302Z,3.31
2022-12-20T22:48:43.893Z,3.28
2022-12-20T22:51:16.511Z,3.35
2022-12-20T22:53:44.114Z,3.44
2022-12-20T22:56:11.899Z,3.41
2022-12-20T22:58:39.552Z,3.30
2022-12-20T23:01:10.457Z,3.27
2022-12-20T23:03:37.707Z,3.31
2022-12-20T23:06:06.799Z,3.53
2022-12-20T23:08:36.112Z,3.45
2022-12-20T23:11:27.082Z,3.52
2022-12-20T23:14:15.967Z,3.41
2022-12-20T23:16:42.883Z,3.47
2022-12-20T23:19:09.707Z,3.37
2022-12-20T23:21:54.864Z,3.36
2022-12-20T23:24:22.080Z,3.47
2022-12-20T23:26:48.724Z,3.53
2022-12-20T23:29:15.552Z,3.63
2022-12-20T23:31:45.377Z,3.58
2022-12-20T23:34:12.264Z,3.57
2022-12-20T23:36:39.377Z,3.59
2022-12-20T23:39:06.450Z,3.45
2022-12-20T23:41:33.463Z,3.31
2022-12-20T23:44:05.303Z,3.21
2022-12-20T23:46:34.195Z,3.21
2022-12-20T23:49:02.464Z,3.23
2022-12-20T23:51:29.276Z,3.26
2022-12-20T23:53:56.032Z,3.30
2022-12-20T23:56:23.636Z,3.19
2022-12-20T23:58:53.340Z,3.15
